Time;durP1;ratioP1;P1;durP2;ratioP2;P2;SDS_P1;SDS_P2;PMS_P1;PMS_P2;Temp;Humidity;BMP_temperature;BMP_pressure;BME280_temperature;BME280_humidity;BME280_pressure;Samples;Min_cycle;Max_cycle;Signal;HPM_P1;HPM_P2
2021/04/14 02:47:36;;;;;;;21.08;11.15;;;-0.50;99.90;;;;;;4845027;29;91621;-84
2021/04/14 02:50:05;;;;;;;22.40;11.57;;;-0.50;99.90;;;;;;4860402;29;91288;-84
2021/04/14 02:52:30;;;;;;;18.92;10.75;;;-0.50;99.90;;;;;;4864052;29;95529;-83
2021/04/14 02:54:56;;;;;;;19.52;10.85;;;-0.50;99.90;;;;;;4865523;29;92252;-83
2021/04/14 02:57:22;;;;;;;20.95;11.27;;;-0.60;99.90;;;;;;4865379;29;91748;-83
2021/04/14 02:59:48;;;;;;;18.65;10.98;;;-0.60;99.90;;;;;;4865974;29;91262;-83
2021/04/14 03:02:13;;;;;;;21.98;11.25;;;-0.60;99.90;;;;;;4857041;29;91269;-84
2021/04/14 03:04:39;;;;;;;21.45;10.68;;;-0.60;99.90;;;;;;4866630;29;91221;-84
2021/04/14 03:07:05;;;;;;;20.50;11.27;;;-0.60;99.90;;;;;;4851917;29;92062;-85
2021/04/14 03:09:30;;;;;;;20.98;10.98;;;-0.60;99.90;;;;;;4852571;29;93005;-84
2021/04/14 03:11:56;;;;;;;22.40;11.13;;;-0.60;99.90;;;;;;4851090;29;91896;-84
2021/04/14 03:14:22;;;;;;;19.25;11.20;;;-0.60;99.90;;;;;;4851623;29;92256;-84
2021/04/14 03:16:48;;;;;;;24.55;12.02;;;-0.60;99.90;;;;;;4835137;29;92082;-83
2021/04/14 03:19:13;;;;;;;25.98;12.82;;;-0.60;99.90;;;;;;4845468;29;92057;-83
2021/04/14 03:21:39;;;;;;;25.23;12.40;;;-0.70;99.90;;;;;;4859532;29;91957;-84
2021/04/14 03:24:05;;;;;;;24.50;12.65;;;-0.70;99.90;;;;;;4856822;29;92572;-84
2021/04/14 03:26:31;;;;;;;23.02;12.52;;;-0.60;99.90;;;;;;4848827;29;91103;-85
2021/04/14 03:28:57;;;;;;;24.17;12.05;;;-0.70;99.90;;;;;;4856722;29;91791;-83
2021/04/14 03:31:26;;;;;;;24.55;13.40;;;-0.70;99.90;;;;;;4854939;29;93021;-83
2021/04/14 03:33:53;;;;;;;28.33;13.55;;;-0.70;99.90;;;;;;4862015;29;92889;-84
2021/04/14 03:36:18;;;;;;;22.38;13.32;;;-0.70;99.90;;;;;;4867704;29;91561;-84
2021/04/14 03:38:44;;;;;;;22.95;12.77;;;-0.70;99.90;;;;;;4850163;29;92456;-85
2021/04/14 03:41:10;;;;;;;22.90;12.50;;;-0.70;99.90;;;;;;4841181;29;92574;-85
2021/04/14 03:43:35;;;;;;;24.15;12.45;;;-0.70;99.90;;;;;;4850025;29;92328;-86
2021/04/14 03:46:01;;;;;;;29.02;14.80;;;-0.70;99.90;;;;;;4826502;29;92113;-85
2021/04/14 03:48:28;;;;;;;21.80;11.98;;;-0.70;99.90;;;;;;4831608;29;92000;-84
2021/04/14 03:50:54;;;;;;;26.08;12.60;;;-0.70;99.90;;;;;;4831829;29;91698;-83
2021/04/14 03:53:28;;;;;;;22.92;11.75;;;-0.70;99.90;;;;;;4827766;29;91719;-84
2021/04/14 03:56:06;;;;;;;22.13;11.60;;;-0.70;99.90;;;;;;4819329;29;91481;-84
2021/04/14 03:58:33;;;;;;;22.13;11.68;;;-0.70;99.90;;;;;;4814132;29;92940;-85
2021/04/14 04:01:02;;;;;;;24.30;12.70;;;-0.70;99.90;;;;;;4814753;29;93239;-84
2021/04/14 04:03:28;;;;;;;20.42;10.85;;;-0.70;99.90;;;;;;4821885;29;92250;-84
2021/04/14 04:05:54;;;;;;;20.60;11.65;;;-0.70;99.90;;;;;;4848964;29;91932;-84
2021/04/14 04:08:20;;;;;;;21.15;11.57;;;-0.70;99.90;;;;;;4841886;29;92157;-84
2021/04/14 04:10:45;;;;;;;23.00;12.75;;;-0.80;99.90;;;;;;4822894;29;92765;-83
2021/04/14 04:13:13;;;;;;;24.20;13.18;;;-0.70;99.90;;;;;;4837805;29;92040;-83
2021/04/14 04:15:39;;;;;;;22.75;11.85;;;-0.80;99.90;;;;;;4849501;29;91388;-84
2021/04/14 04:18:06;;;;;;;24.65;12.50;;;-0.80;99.90;;;;;;4848175;29;91997;-87
2021/04/14 04:20:33;;;;;;;22.23;11.05;;;-0.80;99.90;;;;;;4846030;29;94148;-85
2021/04/14 04:23:00;;;;;;;28.23;12.38;;;-0.90;99.90;;;;;;4833460;29;92571;-86
2021/04/14 04:25:30;;;;;;;26.20;14.07;;;-0.90;99.90;;;;;;4844467;29;91789;-85
2021/04/14 04:27:56;;;;;;;25.88;12.90;;;-0.90;99.90;;;;;;4839929;29;91715;-85
2021/04/14 04:30:29;;;;;;;24.55;12.10;;;-0.90;99.90;;;;;;4830666;29;92073;-84
2021/04/14 04:32:56;;;;;;;25.77;12.68;;;-1.00;99.90;;;;;;4840724;29;92117;-84
2021/04/14 04:35:23;;;;;;;27.15;13.65;;;-1.00;99.90;;;;;;4831691;29;92038;-84
2021/04/14 04:37:48;;;;;;;26.67;14.60;;;-1.00;99.90;;;;;;4831003;29;92194;-83
2021/04/14 04:40:15;;;;;;;26.33;14.18;;;-1.00;99.90;;;;;;4849226;29;91605;-84
2021/04/14 04:42:41;;;;;;;29.00;15.00;;;-1.10;99.90;;;;;;4835585;29;92290;-84
2021/04/14 04:45:08;;;;;;;28.58;14.55;;;-1.10;99.90;;;;;;4849487;29;91986;-84
2021/04/14 04:47:34;;;;;;;28.88;14.10;;;-1.10;99.90;;;;;;4852533;29;93038;-84
2021/04/14 04:49:59;;;;;;;32.00;13.55;;;-1.10;99.90;;;;;;4855946;29;94111;-84
2021/04/14 04:52:25;;;;;;;28.52;14.40;;;-1.10;99.90;;;;;;4858185;28;92123;-84
2021/04/14 04:54:51;;;;;;;27.38;12.88;;;-1.10;99.90;;;;;;4859430;29;91938;-84
2021/04/14 04:57:16;;;;;;;27.52;13.93;;;-1.10;99.90;;;;;;4854201;29;92079;-83
2021/04/14 04:59:42;;;;;;;27.60;14.38;;;-1.10;99.90;;;;;;4859072;29;91929;-87
2021/04/14 05:02:08;;;;;;;30.48;14.48;;;-1.10;99.90;;;;;;4849263;29;92537;-87
2021/04/14 05:04:46;;;;;;;28.02;14.85;;;-1.10;99.90;;;;;;4851021;28;91114;-87
2021/04/14 05:07:12;;;;;;;26.02;14.57;;;-1.00;99.90;;;;;;4862957;29;91965;-86
2021/04/14 05:09:40;;;;;;;29.35;14.55;;;-1.00;99.90;;;;;;4844043;29;93459;-87
2021/04/14 05:12:06;;;;;;;31.58;15.80;;;-0.90;99.90;;;;;;4861292;29;93015;-85
2021/04/14 05:14:32;;;;;;;28.40;15.23;;;-0.90;99.90;;;;;;4852318;29;92023;-83
2021/04/14 05:16:57;;;;;;;30.48;15.00;;;-0.80;99.90;;;;;;4852931;29;92873;-85
2021/04/14 05:19:23;;;;;;;30.67;16.08;;;-0.70;99.90;;;;;;4856486;29;92280;-85
2021/04/14 05:21:50;;;;;;;32.40;15.85;;;-0.60;99.90;;;;;;4864277;29;92661;-84
2021/04/14 05:24:16;;;;;;;29.33;15.35;;;-0.60;99.90;;;;;;4851731;29;92642;-85
2021/04/14 05:26:42;;;;;;;29.17;15.98;;;-0.50;99.90;;;;;;4857143;29;92196;-85
2021/04/14 05:29:07;;;;;;;29.17;14.35;;;-0.50;99.90;;;;;;4856819;29;92487;-86
2021/04/14 05:31:37;;;;;;;30.17;15.50;;;-0.40;99.90;;;;;;4860095;29;92145;-84
2021/04/14 05:34:03;;;;;;;30.42;15.10;;;-0.30;99.90;;;;;;4853675;29;91745;-86
2021/04/14 05:36:29;;;;;;;30.23;14.48;;;-0.30;99.90;;;;;;4852209;29;92915;-84
2021/04/14 05:38:55;;;;;;;33.17;14.32;;;-0.20;99.90;;;;;;4858765;29;93638;-85
2021/04/14 05:41:22;;;;;;;24.77;11.65;;;-0.10;99.90;;;;;;4850700;29;92553;-83
2021/04/14 05:43:48;;;;;;;18.80;9.80;;;0.00;99.90;;;;;;4855049;29;91671;-85
2021/04/14 05:46:17;;;;;;;19.13;10.82;;;0.10;99.90;;;;;;4862293;29;92401;-86
2021/04/14 05:48:44;;;;;;;19.00;10.45;;;0.20;99.90;;;;;;4869944;29;92376;-86
2021/04/14 05:51:18;;;;;;;23.42;11.10;;;0.20;99.90;;;;;;4855151;29;93789;-85
2021/04/14 05:53:46;;;;;;;22.92;11.40;;;0.30;99.90;;;;;;4861458;29;91249;-85
2021/04/14 05:56:12;;;;;;;20.80;11.27;;;0.40;99.90;;;;;;4861546;29;92663;-86
2021/04/14 05:58:39;;;;;;;20.33;10.00;;;0.50;99.90;;;;;;4865471;29;92743;-85
2021/04/14 06:01:08;;;;;;;19.80;11.95;;;0.60;99.90;;;;;;4864072;29;93098;-85
2021/04/14 06:03:34;;;;;;;11.68;6.22;;;0.60;99.90;;;;;;4865280;29;91960;-86
2021/04/14 06:06:00;;;;;;;19.10;10.57;;;0.60;99.90;;;;;;4866678;29;92221;-85
2021/04/14 06:08:28;;;;;;;19.40;10.48;;;0.60;99.90;;;;;;4865933;29;92923;-85
2021/04/14 06:10:55;;;;;;;14.82;7.90;;;0.70;99.90;;;;;;4858585;29;92066;-86
2021/04/14 06:13:20;;;;;;;16.75;9.30;;;0.70;99.90;;;;;;4860946;29;91923;-85
2021/04/14 06:15:46;;;;;;;15.00;7.63;;;0.80;99.90;;;;;;4870340;29;92042;-85
2021/04/14 06:18:12;;;;;;;20.13;9.10;;;0.90;99.90;;;;;;4866695;29;91421;-86
2021/04/14 06:20:38;;;;;;;15.65;9.40;;;1.10;99.90;;;;;;4875049;29;92012;-85
2021/04/14 06:23:09;;;;;;;15.93;7.50;;;1.20;99.90;;;;;;4867208;29;91615;-85
2021/04/14 06:25:40;;;;;;;17.20;9.93;;;1.20;99.90;;;;;;4874042;29;92680;-86
2021/04/14 06:28:07;;;;;;;;;;;1.20;99.90;;;;;;4867308;29;91536;-86
2021/04/14 06:30:36;;;;;;;14.88;8.70;;;1.30;99.90;;;;;;4868716;29;91977;-85
2021/04/14 06:33:04;;;;;;;16.67;10.55;;;1.50;99.90;;;;;;4878191;29;91865;-85
2021/04/14 06:35:31;;;;;;;16.65;9.73;;;1.50;99.90;;;;;;4853248;29;92407;-85
2021/04/14 06:37:58;;;;;;;15.82;9.60;;;1.70;99.90;;;;;;4858663;29;92776;-86
2021/04/14 06:43:18;;;;;;;18.48;10.13;;;1.90;99.90;;;;;;4870105;29;90468;-86
2021/04/14 06:45:48;;;;;;;15.20;8.52;;;2.10;99.90;;;;;;4871308;29;92224;-85
2021/04/14 06:48:33;;;;;;;11.82;7.78;;;2.20;99.90;;;;;;4871184;29;93412;-85
2021/04/14 06:51:14;;;;;;;10.57;6.75;;;2.20;99.90;;;;;;4878125;29;92542;-85
2021/04/14 06:53:57;;;;;;;13.60;7.97;;;2.10;99.90;;;;;;4869208;29;91595;-85
2021/04/14 06:56:24;;;;;;;15.35;8.45;;;2.20;99.90;;;;;;4862562;29;91399;-86
2021/04/14 06:58:58;;;;;;;14.23;9.15;;;2.30;99.90;;;;;;4866816;29;92777;-86
2021/04/14 07:01:40;;;;;;;14.68;7.10;;;2.50;99.90;;;;;;4848876;29;93171;-86
2021/04/14 07:04:09;;;;;;;12.50;7.88;;;2.80;99.90;;;;;;4858980;29;91981;-86
2021/04/14 07:06:39;;;;;;;13.88;8.60;;;3.00;99.90;;;;;;4868308;29;92091;-86
2021/04/14 07:09:10;;;;;;;15.32;9.45;;;3.40;99.90;;;;;;4862129;29;91986;-86
2021/04/14 07:11:37;;;;;;;14.27;6.70;;;3.80;99.90;;;;;;4871182;29;91723;-86
2021/04/14 07:14:04;;;;;;;12.50;8.20;;;4.80;99.90;;;;;;4873645;29;91620;-86
2021/04/14 07:16:37;;;;;;;9.85;5.35;;;6.10;99.90;;;;;;4874822;29;92583;-85
2021/04/14 07:19:10;;;;;;;11.95;7.50;;;7.20;91.90;;;;;;4868323;29;92009;-86
2021/04/14 07:21:53;;;;;;;11.07;8.05;;;8.30;86.20;;;;;;4851100;29;93682;-86
2021/04/14 07:24:23;;;;;;;8.75;5.65;;;9.40;76.00;;;;;;4869885;29;91999;-86
2021/04/14 07:26:57;;;;;;;9.30;6.90;;;10.60;64.40;;;;;;4856621;29;92060;-87
2021/04/14 07:29:28;;;;;;;8.32;6.53;;;11.80;61.50;;;;;;4853549;29;94447;-86
2021/04/14 07:32:08;;;;;;;7.90;6.13;;;13.40;52.30;;;;;;4863893;29;92254;-86
2021/04/14 07:34:43;;;;;;;7.88;5.85;;;13.80;51.30;;;;;;4865984;29;91309;-87
2021/04/14 07:37:20;;;;;;;8.00;6.50;;;15.30;47.70;;;;;;4865796;29;92097;-87
2021/04/14 07:40:10;;;;;;;7.20;5.70;;;16.10;46.60;;;;;;4856993;29;92788;-87
2021/04/14 07:42:59;;;;;;;8.30;6.25;;;17.40;45.90;;;;;;4866315;29;92817;-87
2021/04/14 07:45:29;;;;;;;9.15;6.50;;;18.70;38.00;;;;;;4859407;29;92125;-87
2021/04/14 07:48:09;;;;;;;7.65;6.22;;;18.50;38.40;;;;;;4851009;29;92123;-87
2021/04/14 07:50:46;;;;;;;6.85;5.93;;;18.90;37.90;;;;;;4861727;29;93448;-87
2021/04/14 07:53:25;;;;;;;6.90;6.20;;;19.40;36.40;;;;;;4854117;29;92143;-87
2021/04/14 07:56:13;;;;;;;9.20;5.97;;;19.40;35.50;;;;;;4867992;29;91986;-87
2021/04/14 07:58:45;;;;;;;6.82;6.13;;;19.60;35.00;;;;;;4854909;29;92376;-87
2021/04/14 08:01:25;;;;;;;7.78;6.53;;;19.90;35.20;;;;;;4861122;29;92126;-87
2021/04/14 08:03:52;;;;;;;6.90;6.20;;;20.10;35.10;;;;;;4864906;29;91920;-87
2021/04/14 08:06:29;;;;;;;7.88;6.22;;;20.30;33.40;;;;;;4860703;29;91952;-87
2021/04/14 08:08:55;;;;;;;9.40;6.20;;;20.70;33.50;;;;;;4850732;29;92954;-88
2021/04/14 08:11:33;;;;;;;9.45;6.88;;;21.80;33.30;;;;;;4854871;29;92365;-88
2021/04/14 08:14:13;;;;;;;7.07;6.38;;;22.40;30.50;;;;;;4853792;29;92391;-88
2021/04/14 08:16:47;;;;;;;8.10;6.68;;;23.50;30.70;;;;;;4854869;29;91942;-87
2021/04/14 08:19:19;;;;;;;7.10;6.40;;;25.60;28.80;;;;;;4866706;29;92465;-88
2021/04/14 08:21:58;;;;;;;6.15;5.55;;;25.60;27.90;;;;;;4861973;29;92397;-88
2021/04/14 08:24:39;;;;;;;7.15;6.05;;;26.60;26.90;;;;;;4852586;29;92245;-88
2021/04/14 08:27:19;;;;;;;7.15;5.78;;;26.80;26.70;;;;;;4831853;29;91291;-88
2021/04/14 08:30:10;;;;;;;6.67;5.50;;;26.90;25.30;;;;;;4852998;29;93086;-89
2021/04/14 08:32:37;;;;;;;6.35;5.05;;;27.50;26.00;;;;;;4848335;29;92255;-89
2021/04/14 08:35:26;;;;;;;5.47;4.97;;;28.80;26.10;;;;;;4853999;29;92889;-90
2021/04/14 08:38:04;;;;;;;5.97;5.47;;;29.70;24.60;;;;;;4854971;29;91656;-89
2021/04/14 08:40:33;;;;;;;7.22;5.95;;;28.50;24.80;;;;;;4851985;29;91904;-87
2021/04/14 08:43:11;;;;;;;5.47;5.07;;;29.30;25.30;;;;;;4864862;29;92559;-86
2021/04/14 08:45:43;;;;;;;6.32;5.68;;;30.50;24.80;;;;;;4848045;29;92304;-87
2021/04/14 08:48:15;;;;;;;6.13;5.60;;;31.50;24.40;;;;;;4854531;29;91968;-87
2021/04/14 08:50:49;;;;;;;6.13;4.72;;;32.30;24.30;;;;;;4849408;29;92052;-86
2021/04/14 08:53:18;;;;;;;6.07;5.57;;;33.00;24.40;;;;;;4851682;29;91584;-86
2021/04/14 08:55:45;;;;;;;5.65;4.72;;;33.90;23.50;;;;;;4861551;29;92575;-86
2021/04/14 08:58:16;;;;;;;4.95;4.55;;;30.50;24.30;;;;;;4847406;29;92118;-89
2021/04/14 09:00:42;;;;;;;5.95;4.20;;;31.00;24.20;;;;;;4854913;29;92374;-87
2021/04/14 09:03:10;;;;;;;6.30;5.68;;;32.10;23.40;;;;;;4852084;29;93060;-87
2021/04/14 09:05:37;;;;;;;9.00;6.22;;;32.60;23.20;;;;;;4865462;29;91948;-88
2021/04/14 09:08:10;;;;;;;5.25;4.85;;;32.60;23.80;;;;;;4848499;29;91906;-87
2021/04/14 09:10:50;;;;;;;4.57;4.18;;;32.40;23.70;;;;;;4850301;29;92078;-87
2021/04/14 09:13:15;;;;;;;6.00;4.70;;;33.80;23.50;;;;;;4865728;29;93380;-87
2021/04/14 09:15:54;;;;;;;5.10;4.70;;;34.90;23.30;;;;;;4865598;29;93198;-88
2021/04/14 09:18:37;;;;;;;5.00;4.60;;;35.80;22.20;;;;;;4848757;29;91272;-88
2021/04/14 09:21:16;;;;;;;5.00;4.60;;;35.90;22.00;;;;;;4854405;29;92020;-88
2021/04/14 09:23:55;;;;;;;5.18;4.78;;;36.00;21.70;;;;;;4871120;29;93735;-88
2021/04/14 09:26:27;;;;;;;;;;;36.10;21.80;;;;;;4857801;28;93031;-88
2021/04/14 09:28:53;;;;;;;5.00;4.60;;;36.50;22.30;;;;;;4874878;28;91857;-89
2021/04/14 09:31:41;;;;;;;5.13;4.72;;;36.20;21.10;;;;;;4849266;29;92185;-89
2021/04/14 09:34:33;;;;;;;4.95;4.55;;;35.80;21.80;;;;;;4849646;29;92825;-89
2021/04/14 09:37:00;;;;;;;5.57;5.18;;;35.50;21.40;;;;;;4848670;29;92085;-88
2021/04/14 09:39:31;;;;;;;4.75;4.35;;;35.90;22.20;;;;;;4855572;29;92052;-89
2021/04/14 09:41:57;;;;;;;5.38;4.80;;;36.70;21.50;;;;;;4831158;29;91930;-89
2021/04/14 09:44:40;;;;;;;5.22;3.95;;;36.70;21.60;;;;;;4856970;28;91783;-89
2021/04/14 09:47:11;;;;;;;6.30;5.85;;;34.60;21.30;;;;;;4847884;29;93232;-89
2021/04/14 09:49:40;;;;;;;5.35;4.97;;;34.30;21.40;;;;;;4856333;29;92109;-88
2021/04/14 09:52:32;;;;;;;4.85;4.53;;;34.20;21.80;;;;;;4855245;29;92740;-89
2021/04/14 09:55:15;;;;;;;3.35;3.15;;;35.40;20.80;;;;;;4853954;29;92757;-88
2021/04/14 09:57:44;;;;;;;5.30;5.00;;;34.60;20.80;;;;;;4850962;29;91897;-88
2021/04/14 10:00:19;;;;;;;4.80;4.40;;;34.60;21.20;;;;;;4858485;29;92043;-89
2021/04/14 10:02:47;;;;;;;3.65;3.17;;;34.10;21.70;;;;;;4858199;29;91894;-88
2021/04/14 10:05:16;;;;;;;5.18;4.78;;;32.00;21.20;;;;;;4856906;29;92950;-87
2021/04/14 10:07:45;;;;;;;5.35;4.95;;;30.00;21.90;;;;;;4848906;29;92068;-87
2021/04/14 10:10:19;;;;;;;4.72;4.43;;;28.10;22.20;;;;;;4855444;29;91148;-88
2021/04/14 10:12:47;;;;;;;4.75;4.45;;;;;;;;;;4863830;29;91893;-88
2021/04/14 10:15:13;;;;;;;3.25;3.00;;;27.30;22.60;;;;;;4848659;29;92565;-88
2021/04/14 10:17:40;;;;;;;4.90;4.50;;;;;;;;;;4847506;29;92880;-88
2021/04/14 10:20:08;;;;;;;3.88;3.22;;;26.00;23.10;;;;;;4850676;29;91662;-89
2021/04/14 10:22:47;;;;;;;3.50;3.20;;;26.30;23.30;;;;;;4866419;29;92013;-88
2021/04/14 10:25:28;;;;;;;3.00;2.80;;;28.40;23.30;;;;;;4859850;29;92829;-90
2021/04/14 10:28:15;;;;;;;2.90;2.70;;;29.50;22.90;;;;;;4869722;29;93257;-91
2021/04/14 10:31:00;;;;;;;4.30;4.00;;;29.70;21.80;;;;;;4873979;29;92118;-89
2021/04/14 10:33:26;;;;;;;4.55;4.25;;;29.20;21.90;;;;;;4871204;29;92042;-90
2021/04/14 10:36:07;;;;;;;2.90;2.60;;;29.20;22.30;;;;;;4864831;29;92056;-91
2021/04/14 10:38:34;;;;;;;4.70;4.40;;;29.70;22.40;;;;;;4841698;29;92099;-91
2021/04/14 10:41:22;;;;;;;3.80;3.33;;;29.70;22.80;;;;;;4858103;29;92048;-90
2021/04/14 10:43:49;;;;;;;3.50;3.30;;;29.90;22.60;;;;;;4857685;29;93030;-88
2021/04/14 10:46:18;;;;;;;3.80;2.90;;;27.00;22.90;;;;;;4854456;29;93991;-89
2021/04/14 10:48:48;;;;;;;2.88;2.67;;;28.70;22.30;;;;;;4857284;29;93389;-91
2021/04/14 10:51:37;;;;;;;3.60;3.40;;;30.20;21.60;;;;;;4854662;28;92233;-89
2021/04/14 10:54:09;;;;;;;4.05;3.75;;;30.20;21.30;;;;;;4852621;29;92402;-87
2021/04/14 10:56:35;;;;;;;4.10;3.80;;;;;;;;;;4850685;29;92511;-88
2021/04/14 10:59:06;;;;;;;4.03;3.67;;;25.40;22.20;;;;;;4852775;29;92848;-88
2021/04/14 11:01:32;;;;;;;3.60;3.30;;;;;;;;;;4855186;29;91465;-88
2021/04/14 11:04:17;;;;;;;2.20;2.08;;;23.70;22.80;;;;;;4853951;29;92299;-88
2021/04/14 11:06:45;;;;;;;4.50;4.10;;;22.80;24.50;;;;;;4854880;29;92595;-87
2021/04/14 11:09:12;;;;;;;3.78;3.50;;;20.60;24.50;;;;;;4856075;29;93335;-89
2021/04/14 11:11:40;;;;;;;4.10;3.70;;;19.90;25.90;;;;;;4852701;29;92134;-87
2021/04/14 11:14:08;;;;;;;3.42;3.20;;;19.30;26.10;;;;;;4852947;29;92242;-86
2021/04/14 11:16:37;;;;;;;3.83;3.53;;;18.80;26.20;;;;;;4845359;29;93632;-85
2021/04/14 11:19:13;;;;;;;3.63;3.42;;;18.10;26.40;;;;;;4849406;29;92537;-85
2021/04/14 11:21:41;;;;;;;2.20;2.00;;;18.50;27.00;;;;;;4858925;29;92227;-89
2021/04/14 11:24:09;;;;;;;4.00;3.70;;;18.50;27.50;;;;;;4858246;29;91604;-88
2021/04/14 11:27:01;;;;;;;3.50;3.30;;;18.40;27.50;;;;;;4858697;29;91190;-89
2021/04/14 11:29:32;;;;;;;4.10;3.70;;;18.90;26.40;;;;;;4855562;29;92183;-88
2021/04/14 11:32:03;;;;;;;2.30;2.00;;;18.80;26.60;;;;;;4844951;29;92061;-88
2021/04/14 11:34:30;;;;;;;5.03;2.42;;;18.90;25.60;;;;;;4862385;29;92872;-87
2021/04/14 11:37:05;;;;;;;3.42;3.20;;;20.20;25.90;;;;;;4854342;29;92782;-87
2021/04/14 11:39:49;;;;;;;4.40;3.67;;;20.20;25.80;;;;;;4857910;29;92150;-86
2021/04/14 11:45:40;;;;;;;3.90;3.60;;;19.40;25.60;;;;;;4798840;23;92306;-89
2021/04/14 11:48:06;;;;;;;3.50;3.30;;;;;;;;;;4877265;28;93279;-88
2021/04/14 11:50:33;;;;;;;2.15;1.95;;;21.70;24.80;;;;;;4891884;28;92524;-89
2021/04/14 11:53:04;;;;;;;3.53;3.33;;;25.20;22.50;;;;;;4872922;28;91211;-90
2021/04/14 11:55:36;;;;;;;3.83;3.53;;;23.90;21.90;;;;;;4898441;28;92030;-89
2021/04/14 11:58:20;;;;;;;2.60;2.35;;;23.80;22.00;;;;;;4886828;28;93536;-88
2021/04/14 12:00:46;;;;;;;3.67;3.38;;;;;;;;;;4871033;28;92275;-88
2021/04/14 12:03:27;;;;;;;3.30;3.10;;;20.00;24.60;;;;;;4854998;29;91975;-91
2021/04/14 12:05:55;;;;;;;;;;;20.30;24.90;;;;;;4854758;29;91483;-89
2021/04/14 12:08:22;;;;;;;2.72;2.13;;;19.70;25.50;;;;;;4863735;28;93770;-90
2021/04/14 12:10:48;;;;;;;3.45;3.20;;;19.20;26.20;;;;;;4884933;28;94111;-87
2021/04/14 12:13:13;;;;;;;3.47;3.05;;;19.20;25.60;;;;;;4876291;28;92194;-86
2021/04/14 12:15:39;;;;;;;4.13;3.13;;;19.70;25.10;;;;;;4883976;28;92127;-87
2021/04/14 12:18:05;;;;;;;4.03;3.58;;;17.90;25.80;;;;;;4880979;28;93331;-86
2021/04/14 12:20:32;;;;;;;3.17;3.00;;;18.00;26.00;;;;;;4871273;28;92016;-85
2021/04/14 12:22:57;;;;;;;1.98;1.88;;;18.70;26.00;;;;;;4879072;28;92313;-86
2021/04/14 12:25:23;;;;;;;3.67;3.40;;;18.50;26.60;;;;;;4881528;28;92896;-88
2021/04/14 12:27:50;;;;;;;2.78;2.15;;;18.80;25.80;;;;;;4896042;28;93618;-90
2021/04/14 12:30:20;;;;;;;2.35;2.15;;;20.20;26.00;;;;;;4898378;28;92530;-87
2021/04/14 12:32:46;;;;;;;2.03;1.90;;;21.00;24.60;;;;;;4904074;28;91993;-89
2021/04/14 12:35:11;;;;;;;2.00;1.90;;;20.90;24.20;;;;;;4879006;28;91859;-89
2021/04/14 12:37:37;;;;;;;1.77;1.67;;;20.10;24.10;;;;;;4880697;28;93441;-88
2021/04/14 12:40:04;;;;;;;2.05;1.95;;;19.80;24.40;;;;;;4870187;28;92571;-88
2021/04/14 12:42:32;;;;;;;3.30;3.10;;;21.90;23.50;;;;;;4877030;28;91451;-87
2021/04/14 12:45:02;;;;;;;2.53;1.85;;;21.70;23.80;;;;;;4872353;28;91856;-87
2021/04/14 12:47:28;;;;;;;2.08;1.90;;;21.40;22.70;;;;;;4872850;28;91531;-89
2021/04/14 12:49:55;;;;;;;3.13;2.90;;;21.20;22.70;;;;;;4882837;28;92838;-87
2021/04/14 12:52:42;;;;;;;3.35;2.00;;;21.50;23.20;;;;;;4877276;28;91972;-87
2021/04/14 12:55:14;;;;;;;2.05;1.92;;;20.80;23.70;;;;;;4871389;28;91948;-87
2021/04/14 12:57:41;;;;;;;3.20;3.00;;;22.80;23.90;;;;;;4884406;28;92670;-86
2021/04/14 13:00:22;;;;;;;3.85;3.50;;;24.00;22.60;;;;;;4884631;28;92886;-88
2021/04/14 13:02:51;;;;;;;2.67;1.70;;;23.80;22.80;;;;;;4868820;28;91897;-88
2021/04/14 13:05:26;;;;;;;2.88;2.08;;;24.50;22.50;;;;;;4880193;28;91971;-88
2021/04/14 13:08:03;;;;;;;3.70;3.40;;;23.70;22.60;;;;;;4873139;28;92671;-89
2021/04/14 13:10:56;;;;;;;4.07;3.78;;;21.90;24.90;;;;;;4868538;28;92057;-86
2021/04/14 13:13:22;;;;;;;2.40;2.17;;;21.90;25.20;;;;;;4858888;28;91987;-87
2021/04/14 13:15:52;;;;;;;3.13;2.25;;;20.80;25.40;;;;;;4871859;28;93095;-88
2021/04/14 13:18:18;;;;;;;2.47;2.00;;;19.80;26.60;;;;;;4870610;28;92065;-86
2021/04/14 13:20:47;;;;;;;3.85;3.55;;;17.80;28.10;;;;;;4872620;28;91851;-88
2021/04/14 13:23:15;;;;;;;8.25;4.72;;;17.20;29.30;;;;;;4851886;29;91445;-87
2021/04/14 13:25:52;;;;;;;4.38;2.50;;;16.90;29.30;;;;;;4872348;28;92170;-87
2021/04/14 13:28:35;;;;;;;2.20;2.00;;;16.40;29.30;;;;;;4873757;28;92636;-87
2021/04/14 13:31:04;;;;;;;6.38;2.33;;;15.60;31.20;;;;;;4866332;28;92680;-89
2021/04/14 13:33:43;;;;;;;4.00;3.70;;;14.80;34.20;;;;;;4871036;28;91313;-87
2021/04/14 13:36:21;;;;;;;3.20;2.90;;;14.40;32.90;;;;;;4879446;28;91986;-87
2021/04/14 13:38:53;;;;;;;2.95;2.40;;;13.90;33.80;;;;;;4869983;28;92445;-88
2021/04/14 13:41:47;;;;;;;4.80;4.35;;;12.50;35.90;;;;;;4875002;28;92875;-88
2021/04/14 13:44:37;;;;;;;4.13;2.55;;;12.90;34.90;;;;;;4873572;28;92078;-87
2021/04/14 13:47:16;;;;;;;4.28;3.88;;;12.70;37.40;;;;;;4875636;28;92000;-89
2021/04/14 13:49:47;;;;;;;2.42;2.15;;;12.60;36.20;;;;;;4863090;28;94511;-87
2021/04/14 13:52:18;;;;;;;2.70;2.40;;;12.50;36.30;;;;;;4878154;28;92047;-89
2021/04/14 13:54:50;;;;;;;;;;;12.40;37.20;;;;;;4873673;28;91994;-89
2021/04/14 13:57:23;;;;;;;2.28;2.08;;;12.60;37.40;;;;;;4871612;28;91955;-89
2021/04/14 13:59:58;;;;;;;4.13;2.55;;;13.40;37.60;;;;;;4878854;28;91879;-87
2021/04/14 14:02:37;;;;;;;2.78;2.58;;;14.60;36.60;;;;;;4863447;28;93148;-87
2021/04/14 14:05:15;;;;;;;2.58;2.38;;;15.50;35.20;;;;;;4882549;28;91764;-89
2021/04/14 14:08:08;;;;;;;2.30;1.95;;;16.50;34.90;;;;;;4880398;28;92959;-88
2021/04/14 14:10:57;;;;;;;3.80;3.50;;;17.80;31.20;;;;;;4879114;28;92410;-88
2021/04/14 14:13:26;;;;;;;2.60;2.25;;;18.30;31.60;;;;;;4871526;28;91748;-88
2021/04/14 14:16:24;;;;;;;3.72;3.50;;;18.50;29.80;;;;;;4880506;29;91960;-90
2021/04/14 14:19:17;;;;;;;2.40;2.20;;;18.30;30.00;;;;;;4873841;28;91448;-89
2021/04/14 14:22:06;;;;;;;4.00;3.70;;;16.80;31.10;;;;;;4891710;28;92401;-90
2021/04/14 14:24:37;;;;;;;3.67;2.50;;;16.80;31.00;;;;;;4888235;28;92276;-89
2021/04/14 14:27:06;;;;;;;2.55;2.35;;;16.40;31.70;;;;;;4867863;28;91502;-90
2021/04/14 14:29:34;;;;;;;3.97;2.33;;;15.80;32.30;;;;;;4854856;29;92221;-89
2021/04/14 14:32:04;;;;;;;3.95;3.50;;;15.00;33.30;;;;;;4884844;28;92116;-88
2021/04/14 14:34:33;;;;;;;4.60;3.30;;;14.50;34.20;;;;;;4868634;28;92527;-89
2021/04/14 14:37:33;;;;;;;4.03;3.40;;;14.50;34.50;;;;;;4891332;28;91903;-88
2021/04/14 14:40:44;;;;;;;3.72;2.15;;;14.30;34.60;;;;;;4885660;28;91228;-89
2021/04/14 14:43:21;;;;;;;3.95;2.95;;;13.90;35.90;;;;;;4766875;29;93123;-90
2021/04/14 14:46:14;;;;;;;3.63;2.70;;;13.70;36.40;;;;;;4778848;29;94144;-89
2021/04/14 14:48:41;;;;;;;2.78;2.30;;;13.50;37.40;;;;;;4836893;29;91840;-89
2021/04/14 14:51:13;;;;;;;2.67;2.47;;;13.10;36.90;;;;;;4863811;28;91882;-90
2021/04/14 14:53:50;;;;;;;3.70;3.40;;;13.00;36.80;;;;;;4861903;28;93334;-89
2021/04/14 14:56:30;;;;;;;3.78;2.22;;;13.00;37.40;;;;;;4866406;28;93982;-88
2021/04/14 14:58:57;;;;;;;3.90;3.60;;;;;;;;;;4890301;28;91718;-90
2021/04/14 15:01:27;;;;;;;3.00;2.00;;;15.10;39.00;;;;;;4860063;29;93104;-90
2021/04/14 15:03:53;;;;;;;3.55;3.13;;;;;;;;;;4862958;28;94668;-90
2021/04/14 15:06:24;;;;;;;2.10;1.90;;;12.30;38.70;;;;;;4857898;29;93731;-89
2021/04/14 15:08:52;;;;;;;4.13;2.70;;;12.20;39.30;;;;;;4880827;28;91359;-89
2021/04/14 15:11:18;;;;;;;3.97;3.67;;;11.80;39.60;;;;;;4851951;28;91713;-89
2021/04/14 15:13:46;;;;;;;4.10;3.78;;;;;;;;;;4885025;28;92950;-89
2021/04/14 15:16:22;;;;;;;4.93;4.43;;;11.20;42.00;;;;;;4871210;28;93626;-89
2021/04/14 15:18:48;;;;;;;4.03;2.80;;;11.10;42.20;;;;;;4853878;29;91038;-88
2021/04/14 15:21:23;;;;;;;5.25;2.75;;;11.00;41.60;;;;;;4872104;28;91705;-90
2021/04/14 15:23:49;;;;;;;10.07;4.22;;;;;;;;;;4872969;28;92888;-89
2021/04/14 15:26:18;;;;;;;3.33;2.60;;;10.10;42.00;;;;;;4871358;28;93733;-89
2021/04/14 15:28:47;;;;;;;4.50;3.45;;;9.90;43.20;;;;;;4875415;28;91291;-89
2021/04/14 15:31:17;;;;;;;3.72;2.28;;;9.90;44.20;;;;;;4855716;29;93670;-88
2021/04/14 15:33:48;;;;;;;2.67;2.30;;;9.90;43.90;;;;;;4853530;29;93279;-88
2021/04/14 15:36:17;;;;;;;3.83;2.65;;;9.90;44.40;;;;;;4877576;28;94629;-89
2021/04/14 15:42:11;;;;;;;3.53;2.40;;;9.80;44.50;;;;;;4869849;28;91323;-88
2021/04/14 15:44:36;;;;;;;3.10;2.20;;;9.70;45.80;;;;;;4884310;28;92020;-88
2021/04/14 15:47:02;;;;;;;3.88;3.42;;;;;;;;;;5009167;23;92160;-88
2021/04/14 15:50:07;;;;;;;5.40;2.78;;;9.60;44.10;;;;;;4876468;28;92118;-87
2021/04/14 15:52:41;;;;;;;6.93;2.75;;;9.70;45.20;;;;;;4876015;28;93119;-88
2021/04/14 15:55:08;;;;;;;4.95;2.55;;;9.70;45.80;;;;;;4893810;28;92226;-88
2021/04/14 15:58:03;;;;;;;2.70;2.50;;;9.70;45.40;;;;;;4861980;28;93609;-87
2021/04/14 16:00:32;;;;;;;3.08;2.50;;;9.70;45.00;;;;;;4886357;28;92165;-89
2021/04/14 16:02:58;;;;;;;3.10;2.80;;;9.60;44.90;;;;;;4877900;28;92054;-88
2021/04/14 16:05:27;;;;;;;4.05;3.63;;;9.70;45.10;;;;;;4876101;28;92132;-88
2021/04/14 16:08:08;;;;;;;4.65;2.53;;;9.60;45.50;;;;;;4895963;28;92501;-89